ROMMA est une association bénévole à but non lucratif. Votre soutien est indispensable : ADHERER à ROMMA ou FAIRE un DON

Crest - (26, Drôme)

Vallée de la Drôme (315 m)   Longitude: 5°2' E   Latitude: 44°44' N Station partenaire n°62
 

Détail journalier du     <<     >>

Température Precipitation Humidité Pression Vent Dir Rafale Dir. rafale Ensol.
Heure (°C) (mm) (%) (hPa) (km/h) (km/h) (min)
01:00 21.9045101412SSO24SO0
02:00 22.1043101310NE24SSO0
03:00 20.304810136SSO18SSO0
04:00 17.206010132SSE8SSO0
05:00 19.305410136SSO19SSO0
06:00 14.906910136SSO23NNE0
07:00 14.607210142SE8SSE0
08:00 19.205810145SSO18S0
09:00 21.105410148SSO21ENE32
10:00 22.4050101412SSO26NNO60
11:00 23.4048101414SSO32SSO59
12:00 25.2044101416SSO35SSO60
13:00 26.6038101319SSO35NE60
14:00 27.9033101320N39SSO60
15:00 27.8032101319N39NNO60
16:00 28.1028101319N42SSO60
17:00 28.3026101218N39N60
18:00 28.0028101219N39N60
19:00 27.6028101217N32N60
20:00 26.0030101212N27NNO29
21:00 24.303710126SSO16N0
22:00 23.003610125SSO10N0
23:00 22.504210134NNO10SSO0
minuit 21.704610136SSO24SO0

Graphique du 03-08-2019

 

Serveur OMMA